Portada
METAR-TAF:

METAR-TAF

Aeroports :

Khurramabad, Iran

latitud: 33-26-11N, longitud: 048-17-09E, altitud: 1155 m

Observació

L'informe es va fer fa 19 minuts, a les 08:00 UTC
Vent 2 kt del Est
Temperatura 19°C
Humitat 19%
Pressió 1023 hPa
Visibilitat 10 km o més
sense núvols per sota de 1500 mi sense presència de cumulonimbus.

METAR: OICK 120800Z 08002KT CAVOK 19/M05 Q1023

Hora: 11:49 (08:19 UTC)


TAF: manca

Observacions i pronòstics meteorològics de més de 4000 aeroports (METAR i TAF).

Les estacions disponibles són els punts grocs i vermells al mapa.

Posi el ratolí al punt desitjat per veure el nom de l'estació.

Feu clic per veure les observacions i els pronòstics meteorològics.

Per canviar el mapa: feu clic els botons verds amb una creu de color negre per apropar; al botó verd amb un guió per allunyar la imatge; o en les fletxes verdes per a mapes adjacents.


METAR-TAF: